createdAt,value
2022-12-14T00:02:49.404Z,37.03
2022-12-14T00:06:01.416Z,37.65
2022-12-14T00:09:13.481Z,35.90
2022-12-14T00:12:25.316Z,36.28
2022-12-14T00:15:37.849Z,35.33
2022-12-14T00:18:54.982Z,37.83
2022-12-14T00:22:06.864Z,35.18
2022-12-14T00:25:18.924Z,36.15
2022-12-14T00:28:30.873Z,38.18
2022-12-14T00:31:42.684Z,35.58
2022-12-14T00:34:54.666Z,36.68
2022-12-14T00:38:06.579Z,34.60
2022-12-14T00:41:19.011Z,35.98
2022-12-14T00:44:31.394Z,36.73
2022-12-14T00:47:43.182Z,36.78
2022-12-14T00:50:56.566Z,37.58
2022-12-14T00:54:08.393Z,34.85
2022-12-14T00:57:20.543Z,36.03
2022-12-14T01:00:32.314Z,37.40
2022-12-14T01:03:44.189Z,37.13
2022-12-14T01:06:57.663Z,36.73
2022-12-14T01:10:10.627Z,37.48
2022-12-14T01:13:24.240Z,38.33
2022-12-14T01:16:36.380Z,37.30
2022-12-14T01:19:49.255Z,38.00
2022-12-14T01:23:03.241Z,39.05
2022-12-14T01:26:16.204Z,38.10
2022-12-14T01:29:28.360Z,39.23
2022-12-14T01:32:41.811Z,39.30
2022-12-14T01:35:53.583Z,37.28
2022-12-14T01:39:09.559Z,38.78
2022-12-14T01:42:22.726Z,38.30
2022-12-14T01:45:35.085Z,36.95
2022-12-14T01:48:46.927Z,38.55
2022-12-14T01:52:04.264Z,37.78
2022-12-14T01:55:20.761Z,37.48
2022-12-14T01:58:34.469Z,37.55
2022-12-14T02:01:49.083Z,37.40
2022-12-14T02:05:05.573Z,37.90
2022-12-14T02:08:18.443Z,38.63
2022-12-14T02:11:39.222Z,38.80
2022-12-14T02:14:51.890Z,38.38
2022-12-14T02:18:05.328Z,36.88
2022-12-14T02:21:36.960Z,37.15
2022-12-14T02:25:24.641Z,39.23
2022-12-14T02:29:02.992Z,39.53
2022-12-14T02:32:42.398Z,38.30
2022-12-14T02:35:59.661Z,40.43
2022-12-14T02:39:18.593Z,41.00
2022-12-14T02:42:38.552Z,40.43
2022-12-14T02:45:54.879Z,38.08
2022-12-14T02:52:26.872Z,39.25
2022-12-14T02:55:43.114Z,41.53
2022-12-14T02:58:56.966Z,40.35
2022-12-14T03:02:10.568Z,41.83
2022-12-14T03:05:23.500Z,42.10
2022-12-14T03:08:38.968Z,48.03
2022-12-14T03:11:56.314Z,43.28
2022-12-14T03:15:11.959Z,41.18
2022-12-14T03:18:28.391Z,41.73
2022-12-14T03:21:44.202Z,41.68
2022-12-14T03:25:01.395Z,41.70
2022-12-14T03:28:17.708Z,44.43
2022-12-14T03:31:35.978Z,43.83
2022-12-14T03:34:53.235Z,42.08
2022-12-14T03:38:11.283Z,44.15
2022-12-14T03:41:30.815Z,44.40
2022-12-14T03:44:49.327Z,44.38
2022-12-14T03:48:10.984Z,44.35
2022-12-14T03:51:28.411Z,44.35
2022-12-14T03:54:49.523Z,45.45
2022-12-14T03:58:15.593Z,44.68
2022-12-14T04:01:34.840Z,44.93
2022-12-14T04:04:52.137Z,43.43
2022-12-14T04:08:10.981Z,44.08
2022-12-14T04:11:39.203Z,47.80
2022-12-14T04:15:10.670Z,43.18
2022-12-14T04:18:38.198Z,45.88
2022-12-14T04:21:55.211Z,47.63
2022-12-14T04:25:26.508Z,46.10
2022-12-14T04:28:58.567Z,45.33
2022-12-14T04:32:15.555Z,45.63
2022-12-14T04:35:33.540Z,44.05
2022-12-14T04:38:48.591Z,46.40
2022-12-14T04:42:04.704Z,43.23
2022-12-14T04:45:22.527Z,42.98
2022-12-14T04:48:41.495Z,42.95
2022-12-14T04:52:04.991Z,43.53
2022-12-14T04:55:19.510Z,41.78
2022-12-14T04:58:34.884Z,42.10
2022-12-14T05:01:55.981Z,40.35
2022-12-14T05:05:14.798Z,38.78
2022-12-14T05:08:35.597Z,39.90
2022-12-14T05:11:55.058Z,38.55
2022-12-14T05:15:13.454Z,39.13
2022-12-14T05:18:26.171Z,38.78
2022-12-14T05:21:54.033Z,38.15
2022-12-14T05:25:05.843Z,37.13
2022-12-14T05:28:19.369Z,39.35
2022-12-14T05:31:32.052Z,36.95
2022-12-14T05:34:44.151Z,40.15
2022-12-14T05:37:56.182Z,40.95
2022-12-14T05:41:08.398Z,40.60
2022-12-14T05:44:20.367Z,40.83
2022-12-14T05:47:32.937Z,39.70
2022-12-14T05:50:44.819Z,43.10
2022-12-14T05:53:57.149Z,40.93
2022-12-14T05:57:09.892Z,42.55
2022-12-14T06:00:23.577Z,42.63
2022-12-14T06:03:35.692Z,42.68
2022-12-14T06:06:47.907Z,42.45
2022-12-14T06:10:02.659Z,43.48
2022-12-14T06:13:14.567Z,44.53
2022-12-14T06:16:29.732Z,43.28
2022-12-14T06:19:42.532Z,44.70
2022-12-14T06:22:56.566Z,42.03
2022-12-14T06:26:08.714Z,44.70
2022-12-14T06:29:24.305Z,48.23
2022-12-14T06:32:36.528Z,47.48
2022-12-14T06:35:52.158Z,45.23
2022-12-14T06:39:07.943Z,46.85
2022-12-14T06:42:19.863Z,48.80
2022-12-14T06:45:32.344Z,48.90
2022-12-14T06:48:44.733Z,49.45
2022-12-14T06:51:57.797Z,57.20
2022-12-14T06:55:11.690Z,49.53
2022-12-14T06:58:25.754Z,51.58
2022-12-14T07:01:37.836Z,51.85
2022-12-14T07:04:50.663Z,47.95
2022-12-14T07:08:03.080Z,51.98
2022-12-14T07:11:17.667Z,52.15
2022-12-14T07:14:29.628Z,49.50
2022-12-14T07:17:43.163Z,48.93
2022-12-14T07:21:05.100Z,50.88
2022-12-14T07:24:17.613Z,52.60
2022-12-14T07:27:29.780Z,49.43
2022-12-14T07:30:41.753Z,53.20
2022-12-14T07:33:56.079Z,67.20
2022-12-14T07:37:08.379Z,53.08
2022-12-14T07:40:21.625Z,51.13
2022-12-14T07:43:33.591Z,50.28
2022-12-14T07:46:46.674Z,49.28
2022-12-14T07:49:58.960Z,52.38
2022-12-14T07:53:11.584Z,51.60
2022-12-14T07:56:26.746Z,52.85
2022-12-14T07:59:39.223Z,54.08
2022-12-14T08:02:51.575Z,51.50
2022-12-14T08:06:03.681Z,54.00
2022-12-14T08:09:17.424Z,52.70
2022-12-14T08:12:29.680Z,49.10
2022-12-14T08:15:45.789Z,52.28
2022-12-14T08:18:59.157Z,51.98
2022-12-14T08:22:11.823Z,52.58
2022-12-14T08:25:24.244Z,54.23
2022-12-14T08:28:38.548Z,51.50
2022-12-14T08:31:50.917Z,89.20
2022-12-14T08:35:02.812Z,53.60
2022-12-14T08:38:15.483Z,50.35
2022-12-14T08:41:28.044Z,46.73
2022-12-14T08:44:39.990Z,48.08
2022-12-14T08:47:51.981Z,49.58
2022-12-14T08:51:09.735Z,49.45
2022-12-14T08:54:24.286Z,50.50
2022-12-14T08:57:36.194Z,50.03
2022-12-14T09:00:48.376Z,48.20
2022-12-14T09:04:00.257Z,49.03
2022-12-14T09:07:12.154Z,57.68
2022-12-14T09:10:24.508Z,55.83
2022-12-14T09:13:37.650Z,48.00
2022-12-14T09:16:49.744Z,48.65
2022-12-14T09:20:02.245Z,48.23
2022-12-14T09:23:14.146Z,48.88
2022-12-14T09:26:27.953Z,50.73
2022-12-14T09:29:40.419Z,51.75
2022-12-14T09:32:52.427Z,44.93
2022-12-14T09:36:09.777Z,48.65
2022-12-14T09:39:22.033Z,49.78
2022-12-14T09:42:58.062Z,49.43
2022-12-14T09:46:22.468Z,48.73
2022-12-14T09:49:38.859Z,49.88
2022-12-14T09:52:55.513Z,52.15
2022-12-14T09:56:09.107Z,47.10
2022-12-14T09:59:23.762Z,45.15
2022-12-14T10:02:47.191Z,43.13
2022-12-14T10:06:17.789Z,37.70
2022-12-14T10:09:37.399Z,40.48
2022-12-14T10:12:59.440Z,42.90
2022-12-14T10:16:22.773Z,40.48
2022-12-14T10:19:46.494Z,43.30
2022-12-14T10:23:00.442Z,42.80
2022-12-14T10:26:17.078Z,42.43
2022-12-14T10:29:37.311Z,43.33
2022-12-14T10:32:53.628Z,43.55
2022-12-14T10:36:11.987Z,55.43
2022-12-14T10:39:34.634Z,52.55
2022-12-14T10:42:53.630Z,43.58
2022-12-14T10:46:14.297Z,43.45
2022-12-14T10:49:31.110Z,45.43
2022-12-14T10:52:46.508Z,42.88
2022-12-14T10:56:03.114Z,46.75
2022-12-14T10:59:39.707Z,46.93
2022-12-14T11:02:51.805Z,46.28
2022-12-14T11:06:09.114Z,46.78
2022-12-14T11:09:30.366Z,49.23
2022-12-14T11:12:42.960Z,46.70
2022-12-14T11:15:57.537Z,48.53
2022-12-14T11:19:15.562Z,44.38
2022-12-14T11:22:27.679Z,47.55
2022-12-14T11:25:52.190Z,44.48
2022-12-14T11:29:06.668Z,49.38
2022-12-14T11:32:28.520Z,49.20
2022-12-14T11:35:40.764Z,47.28
2022-12-14T11:39:02.142Z,46.50
2022-12-14T11:42:19.874Z,52.80
2022-12-14T11:45:40.526Z,46.08
2022-12-14T11:48:55.742Z,44.78
2022-12-14T11:52:15.445Z,46.50
2022-12-14T11:55:30.454Z,45.28
2022-12-14T11:58:47.683Z,48.60
2022-12-14T12:01:59.999Z,47.88
2022-12-14T12:05:15.945Z,47.18
2022-12-14T12:08:32.090Z,47.33
2022-12-14T12:11:48.481Z,47.45
2022-12-14T12:15:04.464Z,48.50
2022-12-14T12:18:21.245Z,48.63
2022-12-14T12:25:23.633Z,47.50
2022-12-14T12:28:14.777Z,49.80
2022-12-14T12:31:33.882Z,48.28
2022-12-14T12:34:52.028Z,47.23
2022-12-14T12:38:10.123Z,53.78
2022-12-14T12:41:30.691Z,48.68
2022-12-14T12:44:53.611Z,49.33
2022-12-14T12:48:10.353Z,49.80
2022-12-14T12:54:40.541Z,47.13
2022-12-14T12:57:56.470Z,50.88
2022-12-14T13:01:15.534Z,50.67
2022-12-14T13:04:38.533Z,51.10
2022-12-14T13:07:54.857Z,51.48
2022-12-14T13:11:27.573Z,53.05
2022-12-14T13:14:32.546Z,51.40
2022-12-14T13:17:50.444Z,54.80
2022-12-14T13:21:03.713Z,54.53
2022-12-14T13:24:22.440Z,55.65
2022-12-14T13:28:10.094Z,55.63
2022-12-14T13:31:32.891Z,53.70
2022-12-14T13:34:55.523Z,54.03
2022-12-14T13:38:33.376Z,52.60
2022-12-14T13:41:49.387Z,64.48
2022-12-14T13:45:08.202Z,56.35
2022-12-14T13:48:28.865Z,54.53
2022-12-14T13:51:44.796Z,52.58
2022-12-14T13:54:59.821Z,55.75
2022-12-14T13:58:23.919Z,54.88
2022-12-14T14:02:05.884Z,56.13
2022-12-14T14:05:50.125Z,55.85
2022-12-14T14:09:03.360Z,54.10
2022-12-14T14:12:48.274Z,55.78
2022-12-14T14:19:26.909Z,56.68
2022-12-14T14:22:38.787Z,55.20
2022-12-14T14:25:55.985Z,53.73
2022-12-14T14:29:25.024Z,56.78
2022-12-14T14:32:53.794Z,53.08
2022-12-14T14:36:24.099Z,54.05
2022-12-14T14:40:05.934Z,58.18
2022-12-14T14:43:06.146Z,55.68
2022-12-14T14:46:23.203Z,55.93
2022-12-14T14:49:38.621Z,55.95
2022-12-14T14:53:19.806Z,52.85
2022-12-14T14:56:51.775Z,54.58
2022-12-14T15:00:08.558Z,57.40
2022-12-14T15:06:39.301Z,57.98
2022-12-14T15:09:58.129Z,58.28
2022-12-14T15:13:15.956Z,57.33
2022-12-14T15:16:37.556Z,57.50
2022-12-14T15:19:57.115Z,59.25
2022-12-14T15:23:11.566Z,56.68
2022-12-14T15:26:28.918Z,60.35
2022-12-14T15:29:41.305Z,61.63
2022-12-14T15:32:59.008Z,59.23
2022-12-14T15:36:16.123Z,56.73
2022-12-14T15:39:44.261Z,59.38
2022-12-14T15:42:59.638Z,60.83
2022-12-14T15:46:21.253Z,61.15
2022-12-14T15:49:33.590Z,61.68
2022-12-14T15:52:46.708Z,61.55
2022-12-14T15:56:03.979Z,62.15
2022-12-14T15:59:23.053Z,61.95
2022-12-14T16:02:39.757Z,58.48
2022-12-14T16:05:52.216Z,61.03
2022-12-14T16:09:10.004Z,63.63
2022-12-14T16:12:28.923Z,59.03
2022-12-14T16:15:41.918Z,61.58
2022-12-14T16:19:20.257Z,64.00
2022-12-14T16:22:27.912Z,61.20
2022-12-14T16:25:44.817Z,64.20
2022-12-14T16:29:13.736Z,59.60
2022-12-14T16:32:28.785Z,63.70
2022-12-14T16:35:43.380Z,62.43
2022-12-14T16:39:06.098Z,61.85
2022-12-14T16:42:28.497Z,61.53
2022-12-14T16:46:16.314Z,60.78
2022-12-14T16:49:44.258Z,59.93
2022-12-14T16:53:25.947Z,60.45
2022-12-14T16:56:51.117Z,58.73
2022-12-14T17:00:10.206Z,55.78
2022-12-14T17:03:34.803Z,58.15
2022-12-14T17:07:07.150Z,56.33
2022-12-14T17:10:34.313Z,57.93
2022-12-14T17:13:54.932Z,58.00
2022-12-14T17:17:12.880Z,59.75
2022-12-14T17:20:29.291Z,59.58
2022-12-14T17:23:44.960Z,57.10
2022-12-14T17:26:57.878Z,57.20
2022-12-14T17:30:11.779Z,57.58
2022-12-14T17:33:24.980Z,62.85
2022-12-14T17:36:37.921Z,61.78
2022-12-14T17:39:50.439Z,59.70
2022-12-14T17:43:05.105Z,59.03
2022-12-14T17:46:19.545Z,56.18
2022-12-14T17:49:39.305Z,57.63
2022-12-14T17:52:54.188Z,60.18
2022-12-14T17:56:07.354Z,56.10
2022-12-14T17:59:19.310Z,58.88
2022-12-14T18:02:38.107Z,57.60
2022-12-14T18:05:53.200Z,59.08
2022-12-14T18:09:05.629Z,59.03
2022-12-14T18:12:23.574Z,55.63
2022-12-14T18:15:44.019Z,56.30
2022-12-14T18:18:58.228Z,57.10
2022-12-14T18:22:11.442Z,56.78
2022-12-14T18:25:33.212Z,56.78
2022-12-14T18:28:46.396Z,55.58
2022-12-14T18:31:58.754Z,57.05
2022-12-14T18:35:13.713Z,56.80
2022-12-14T18:38:26.059Z,57.45
2022-12-14T18:41:38.491Z,56.38
2022-12-14T18:44:50.491Z,55.18
2022-12-14T18:48:03.802Z,56.55
2022-12-14T18:51:21.834Z,54.28
2022-12-14T18:54:33.998Z,55.83
2022-12-14T18:57:46.543Z,53.65
2022-12-14T19:01:02.678Z,54.35
2022-12-14T19:04:14.930Z,56.20
2022-12-14T19:07:26.990Z,53.23
2022-12-14T19:10:40.186Z,52.53
2022-12-14T19:13:52.394Z,52.10
2022-12-14T19:17:04.377Z,53.68
2022-12-14T19:20:19.758Z,54.95
2022-12-14T19:23:32.113Z,52.93
2022-12-14T19:26:49.534Z,54.38
2022-12-14T19:30:03.113Z,54.08
2022-12-14T19:33:15.767Z,53.03
2022-12-14T19:36:28.392Z,55.43
2022-12-14T19:39:40.704Z,55.03
2022-12-14T19:42:53.570Z,56.33
2022-12-14T19:46:05.930Z,56.30
2022-12-14T19:49:18.647Z,58.23
2022-12-14T19:52:30.844Z,58.00
2022-12-14T19:55:42.935Z,60.53
2022-12-14T19:58:56.855Z,60.85
2022-12-14T20:02:11.518Z,60.00
2022-12-14T20:05:27.337Z,61.58
2022-12-14T20:08:41.252Z,59.65
2022-12-14T20:11:53.478Z,57.88
2022-12-14T20:15:05.724Z,55.38
2022-12-14T20:18:17.629Z,54.08
2022-12-14T20:21:30.714Z,53.78
2022-12-14T20:24:46.345Z,51.85
2022-12-14T20:28:00.334Z,53.10
2022-12-14T20:31:20.461Z,52.85
2022-12-14T20:34:34.279Z,57.08
2022-12-14T20:37:46.757Z,57.68
2022-12-14T20:40:59.085Z,57.00
2022-12-14T20:44:16.256Z,56.73
2022-12-14T20:47:28.489Z,53.90
2022-12-14T20:50:40.853Z,51.08
2022-12-14T20:54:05.076Z,51.18
2022-12-14T20:57:23.936Z,47.93
2022-12-14T21:00:59.552Z,50.80
2022-12-14T21:04:18.129Z,50.60
2022-12-14T21:07:40.099Z,50.00
2022-12-14T21:11:11.210Z,45.43
2022-12-14T21:14:34.681Z,37.43
2022-12-14T21:17:53.815Z,35.90
2022-12-14T21:21:26.452Z,39.53
2022-12-14T21:28:31.860Z,35.20
2022-12-14T21:32:07.647Z,34.70
2022-12-14T21:35:36.301Z,35.93
2022-12-14T21:38:49.102Z,36.78
2022-12-14T21:42:16.980Z,35.68
2022-12-14T21:45:29.119Z,37.10
2022-12-14T21:48:42.659Z,35.75
2022-12-14T21:51:56.745Z,34.73
2022-12-14T21:55:09.290Z,31.60
2022-12-14T21:58:23.784Z,27.85
2022-12-14T22:01:35.798Z,30.18
2022-12-14T22:04:48.661Z,24.13
2022-12-14T22:08:00.615Z,28.28
2022-12-14T22:11:13.230Z,28.45
2022-12-14T22:14:28.633Z,23.18
2022-12-14T22:17:40.491Z,24.08
2022-12-14T22:20:52.781Z,21.30
2022-12-14T22:24:04.770Z,21.00
2022-12-14T22:27:17.322Z,22.65
2022-12-14T22:30:31.814Z,21.15
2022-12-14T22:33:43.380Z,21.10
2022-12-14T22:36:55.964Z,21.15
2022-12-14T22:40:08.362Z,19.20
2022-12-14T22:43:25.851Z,20.05
2022-12-14T22:46:35.906Z,19.75
2022-12-14T22:49:47.946Z,20.13
2022-12-14T22:52:59.953Z,20.03
2022-12-14T22:56:18.083Z,18.93
2022-12-14T22:59:34.444Z,20.10
2022-12-14T23:02:48.175Z,21.05
2022-12-14T23:06:02.282Z,22.20
2022-12-14T23:09:29.432Z,19.80
2022-12-14T23:12:55.947Z,20.95
2022-12-14T23:16:23.428Z,20.23
2022-12-14T23:19:50.149Z,21.35
2022-12-14T23:23:17.018Z,21.50
2022-12-14T23:26:43.620Z,20.00
2022-12-14T23:30:10.391Z,20.00
2022-12-14T23:33:36.488Z,19.80
2022-12-14T23:37:03.184Z,20.00
2022-12-14T23:40:31.952Z,19.73
2022-12-14T23:43:58.835Z,21.28
2022-12-14T23:47:25.563Z,27.53
2022-12-14T23:50:52.113Z,32.50
2022-12-14T23:54:18.735Z,31.30
2022-12-14T23:57:45.603Z,32.20
